sensor_id;sensor_type;location;lat;lon;timestamp;P1;durP1;ratioP1;P2;durP2;ratioP2
23181;SDS011;11759;51.282;6.642;2023-08-20T00:00:58;568.17;;;193.18;;
23181;SDS011;11759;51.282;6.642;2023-08-20T00:03:25;559.75;;;178.32;;
23181;SDS011;11759;51.282;6.642;2023-08-20T00:05:52;553.90;;;180.40;;
23181;SDS011;11759;51.282;6.642;2023-08-20T00:08:19;573.70;;;190.05;;
23181;SDS011;11759;51.282;6.642;2023-08-20T00:10:46;554.50;;;178.50;;
23181;SDS011;11759;51.282;6.642;2023-08-20T00:13:12;573.15;;;191.50;;
23181;SDS011;11759;51.282;6.642;2023-08-20T00:15:39;545.25;;;166.75;;
23181;SDS011;11759;51.282;6.642;2023-08-20T00:18:06;545.28;;;172.10;;
23181;SDS011;11759;51.282;6.642;2023-08-20T00:20:33;572.20;;;187.00;;
23181;SDS011;11759;51.282;6.642;2023-08-20T00:23:00;555.42;;;173.98;;
23181;SDS011;11759;51.282;6.642;2023-08-20T00:25:27;628.38;;;243.80;;
23181;SDS011;11759;51.282;6.642;2023-08-20T00:27:54;554.08;;;177.30;;
23181;SDS011;11759;51.282;6.642;2023-08-20T00:30:20;558.47;;;178.52;;
23181;SDS011;11759;51.282;6.642;2023-08-20T00:32:47;667.80;;;272.58;;
23181;SDS011;11759;51.282;6.642;2023-08-20T00:35:15;659.00;;;265.70;;
23181;SDS011;11759;51.282;6.642;2023-08-20T00:37:41;566.25;;;183.45;;
23181;SDS011;11759;51.282;6.642;2023-08-20T00:40:09;594.75;;;207.73;;
23181;SDS011;11759;51.282;6.642;2023-08-20T00:42:36;618.42;;;227.90;;
23181;SDS011;11759;51.282;6.642;2023-08-20T00:45:07;649.33;;;249.10;;
23181;SDS011;11759;51.282;6.642;2023-08-20T00:47:35;623.15;;;232.65;;
23181;SDS011;11759;51.282;6.642;2023-08-20T00:50:02;548.22;;;171.63;;
23181;SDS011;11759;51.282;6.642;2023-08-20T00:52:33;417.23;;;141.17;;
23181;SDS011;11759;51.282;6.642;2023-08-20T00:55:01;610.60;;;215.82;;
23181;SDS011;11759;51.282;6.642;2023-08-20T00:57:32;581.55;;;193.05;;
23181;SDS011;11759;51.282;6.642;2023-08-20T00:59:59;549.28;;;169.77;;
23181;SDS011;11759;51.282;6.642;2023-08-20T01:02:27;564.13;;;181.68;;
23181;SDS011;11759;51.282;6.642;2023-08-20T01:04:54;725.42;;;326.67;;
23181;SDS011;11759;51.282;6.642;2023-08-20T01:07:29;609.22;;;241.20;;
23181;SDS011;11759;51.282;6.642;2023-08-20T01:12:54;560.15;;;179.30;;
23181;SDS011;11759;51.282;6.642;2023-08-20T01:15:21;610.58;;;221.55;;
23181;SDS011;11759;51.282;6.642;2023-08-20T01:17:48;600.47;;;216.93;;
23181;SDS011;11759;51.282;6.642;2023-08-20T01:20:15;582.83;;;197.48;;
23181;SDS011;11759;51.282;6.642;2023-08-20T01:25:42;572.92;;;186.23;;
23181;SDS011;11759;51.282;6.642;2023-08-20T01:28:30;553.53;;;177.57;;
23181;SDS011;11759;51.282;6.642;2023-08-20T01:30:58;569.28;;;185.85;;
23181;SDS011;11759;51.282;6.642;2023-08-20T01:33:27;550.55;;;176.13;;
23181;SDS011;11759;51.282;6.642;2023-08-20T01:35:54;571.33;;;186.45;;
23181;SDS011;11759;51.282;6.642;2023-08-20T01:38:21;555.10;;;170.15;;
23181;SDS011;11759;51.282;6.642;2023-08-20T01:40:48;554.47;;;176.15;;
23181;SDS011;11759;51.282;6.642;2023-08-20T01:43:15;543.35;;;165.45;;
23181;SDS011;11759;51.282;6.642;2023-08-20T01:45:42;553.30;;;173.00;;
23181;SDS011;11759;51.282;6.642;2023-08-20T01:48:09;568.30;;;188.75;;
23181;SDS011;11759;51.282;6.642;2023-08-20T01:50:36;549.35;;;174.85;;
23181;SDS011;11759;51.282;6.642;2023-08-20T01:53:03;565.45;;;186.15;;
23181;SDS011;11759;51.282;6.642;2023-08-20T01:55:30;579.40;;;201.25;;
23181;SDS011;11759;51.282;6.642;2023-08-20T01:57:58;618.10;;;231.20;;
23181;SDS011;11759;51.282;6.642;2023-08-20T02:00:25;553.00;;;187.18;;
23181;SDS011;11759;51.282;6.642;2023-08-20T02:02:52;554.50;;;179.45;;
23181;SDS011;11759;51.282;6.642;2023-08-20T02:05:19;619.15;;;230.82;;
23181;SDS011;11759;51.282;6.642;2023-08-20T02:07:46;560.05;;;179.32;;
23181;SDS011;11759;51.282;6.642;2023-08-20T02:10:13;605.33;;;217.23;;
23181;SDS011;11759;51.282;6.642;2023-08-20T02:12:40;550.70;;;171.38;;
23181;SDS011;11759;51.282;6.642;2023-08-20T02:15:07;623.40;;;245.07;;
23181;SDS011;11759;51.282;6.642;2023-08-20T02:17:34;548.55;;;170.27;;
23181;SDS011;11759;51.282;6.642;2023-08-20T02:20:03;598.47;;;217.60;;
23181;SDS011;11759;51.282;6.642;2023-08-20T02:22:31;570.47;;;187.43;;
23181;SDS011;11759;51.282;6.642;2023-08-20T02:24:57;557.13;;;177.50;;
23181;SDS011;11759;51.282;6.642;2023-08-20T02:27:24;563.38;;;175.18;;
23181;SDS011;11759;51.282;6.642;2023-08-20T02:29:51;545.83;;;166.07;;
23181;SDS011;11759;51.282;6.642;2023-08-20T02:32:17;557.78;;;181.93;;
23181;SDS011;11759;51.282;6.642;2023-08-20T02:34:48;582.70;;;199.35;;
23181;SDS011;11759;51.282;6.642;2023-08-20T02:37:16;559.17;;;181.85;;
23181;SDS011;11759;51.282;6.642;2023-08-20T02:39:43;587.67;;;195.52;;
23181;SDS011;11759;51.282;6.642;2023-08-20T02:42:10;560.22;;;186.27;;
23181;SDS011;11759;51.282;6.642;2023-08-20T02:44:37;611.83;;;218.85;;
23181;SDS011;11759;51.282;6.642;2023-08-20T02:47:03;579.17;;;191.75;;
23181;SDS011;11759;51.282;6.642;2023-08-20T02:49:30;620.17;;;226.10;;
23181;SDS011;11759;51.282;6.642;2023-08-20T02:51:56;549.13;;;167.18;;
23181;SDS011;11759;51.282;6.642;2023-08-20T02:54:23;568.70;;;179.57;;
23181;SDS011;11759;51.282;6.642;2023-08-20T02:56:52;547.22;;;172.60;;
23181;SDS011;11759;51.282;6.642;2023-08-20T02:59:18;554.85;;;172.73;;
23181;SDS011;11759;51.282;6.642;2023-08-20T03:01:45;557.22;;;175.57;;
23181;SDS011;11759;51.282;6.642;2023-08-20T03:04:12;557.75;;;175.05;;
23181;SDS011;11759;51.282;6.642;2023-08-20T03:06:39;626.97;;;243.05;;
23181;SDS011;11759;51.282;6.642;2023-08-20T03:09:05;546.45;;;163.25;;
23181;SDS011;11759;51.282;6.642;2023-08-20T03:11:32;577.95;;;192.88;;
23181;SDS011;11759;51.282;6.642;2023-08-20T03:13:58;557.35;;;167.45;;
23181;SDS011;11759;51.282;6.642;2023-08-20T03:16:25;616.92;;;223.73;;
23181;SDS011;11759;51.282;6.642;2023-08-20T03:18:52;551.53;;;174.35;;
23181;SDS011;11759;51.282;6.642;2023-08-20T03:21:18;562.28;;;179.50;;
23181;SDS011;11759;51.282;6.642;2023-08-20T03:23:45;555.42;;;171.45;;
23181;SDS011;11759;51.282;6.642;2023-08-20T03:26:12;558.55;;;178.95;;
23181;SDS011;11759;51.282;6.642;2023-08-20T03:28:39;571.20;;;177.68;;
23181;SDS011;11759;51.282;6.642;2023-08-20T03:31:06;560.08;;;172.27;;
23181;SDS011;11759;51.282;6.642;2023-08-20T03:33:37;564.95;;;182.50;;
23181;SDS011;11759;51.282;6.642;2023-08-20T03:36:03;553.90;;;167.80;;
23181;SDS011;11759;51.282;6.642;2023-08-20T03:38:30;678.53;;;277.77;;
23181;SDS011;11759;51.282;6.642;2023-08-20T03:40:57;554.08;;;170.27;;
23181;SDS011;11759;51.282;6.642;2023-08-20T03:43:25;572.65;;;186.88;;
23181;SDS011;11759;51.282;6.642;2023-08-20T03:45:51;550.10;;;168.40;;
23181;SDS011;11759;51.282;6.642;2023-08-20T03:48:18;560.67;;;177.32;;
23181;SDS011;11759;51.282;6.642;2023-08-20T03:50:45;554.40;;;170.95;;
23181;SDS011;11759;51.282;6.642;2023-08-20T03:53:12;575.95;;;186.77;;
23181;SDS011;11759;51.282;6.642;2023-08-20T03:55:38;545.05;;;173.45;;
23181;SDS011;11759;51.282;6.642;2023-08-20T03:58:05;565.28;;;182.45;;
23181;SDS011;11759;51.282;6.642;2023-08-20T04:00:31;550.72;;;169.82;;
23181;SDS011;11759;51.282;6.642;2023-08-20T04:02:58;552.42;;;170.77;;
23181;SDS011;11759;51.282;6.642;2023-08-20T04:05:25;555.22;;;170.52;;
23181;SDS011;11759;51.282;6.642;2023-08-20T04:07:51;551.17;;;173.70;;
23181;SDS011;11759;51.282;6.642;2023-08-20T04:10:19;638.85;;;236.88;;
23181;SDS011;11759;51.282;6.642;2023-08-20T04:12:46;545.47;;;165.70;;
23181;SDS011;11759;51.282;6.642;2023-08-20T04:15:13;614.17;;;224.55;;
23181;SDS011;11759;51.282;6.642;2023-08-20T04:17:40;571.60;;;176.52;;
23181;SDS011;11759;51.282;6.642;2023-08-20T04:20:07;582.63;;;197.32;;
23181;SDS011;11759;51.282;6.642;2023-08-20T04:22:36;553.85;;;171.38;;
23181;SDS011;11759;51.282;6.642;2023-08-20T04:25:04;579.78;;;187.35;;
23181;SDS011;11759;51.282;6.642;2023-08-20T04:27:32;551.88;;;167.02;;
23181;SDS011;11759;51.282;6.642;2023-08-20T04:30:00;562.42;;;175.05;;
23181;SDS011;11759;51.282;6.642;2023-08-20T04:32:27;554.75;;;158.60;;
23181;SDS011;11759;51.282;6.642;2023-08-20T04:34:55;572.83;;;183.00;;
23181;SDS011;11759;51.282;6.642;2023-08-20T04:37:22;558.67;;;170.23;;
23181;SDS011;11759;51.282;6.642;2023-08-20T04:39:50;700.67;;;296.10;;
23181;SDS011;11759;51.282;6.642;2023-08-20T04:42:17;559.65;;;174.38;;
23181;SDS011;11759;51.282;6.642;2023-08-20T04:44:44;574.75;;;183.20;;
23181;SDS011;11759;51.282;6.642;2023-08-20T04:47:11;548.28;;;164.95;;
23181;SDS011;11759;51.282;6.642;2023-08-20T04:49:39;617.22;;;219.88;;
23181;SDS011;11759;51.282;6.642;2023-08-20T04:52:06;550.88;;;165.50;;
23181;SDS011;11759;51.282;6.642;2023-08-20T04:54:33;565.88;;;177.63;;
23181;SDS011;11759;51.282;6.642;2023-08-20T04:57:01;554.13;;;167.15;;
23181;SDS011;11759;51.282;6.642;2023-08-20T04:59:29;555.80;;;167.77;;
23181;SDS011;11759;51.282;6.642;2023-08-20T05:02:17;558.70;;;168.57;;
23181;SDS011;11759;51.282;6.642;2023-08-20T05:04:50;561.08;;;171.02;;
23181;SDS011;11759;51.282;6.642;2023-08-20T05:07:17;556.42;;;174.25;;
23181;SDS011;11759;51.282;6.642;2023-08-20T05:09:44;566.75;;;177.68;;
23181;SDS011;11759;51.282;6.642;2023-08-20T05:12:10;556.92;;;173.13;;
23181;SDS011;11759;51.282;6.642;2023-08-20T05:14:37;608.20;;;212.35;;
23181;SDS011;11759;51.282;6.642;2023-08-20T05:17:04;555.13;;;169.80;;
23181;SDS011;11759;51.282;6.642;2023-08-20T05:19:30;569.95;;;181.30;;
23181;SDS011;11759;51.282;6.642;2023-08-20T05:21:57;561.05;;;178.57;;
23181;SDS011;11759;51.282;6.642;2023-08-20T05:24:28;571.38;;;177.05;;
23181;SDS011;11759;51.282;6.642;2023-08-20T05:29:32;575.22;;;186.95;;
23181;SDS011;11759;51.282;6.642;2023-08-20T05:32:00;558.95;;;185.93;;
23181;SDS011;11759;51.282;6.642;2023-08-20T05:34:26;562.05;;;188.10;;
23181;SDS011;11759;51.282;6.642;2023-08-20T05:36:53;581.15;;;199.35;;
23181;SDS011;11759;51.282;6.642;2023-08-20T05:39:20;565.65;;;186.65;;
23181;SDS011;11759;51.282;6.642;2023-08-20T05:41:46;636.60;;;239.88;;
23181;SDS011;11759;51.282;6.642;2023-08-20T05:44:14;560.40;;;184.07;;
23181;SDS011;11759;51.282;6.642;2023-08-20T05:46:40;626.95;;;241.43;;
23181;SDS011;11759;51.282;6.642;2023-08-20T05:49:07;578.50;;;200.98;;
23181;SDS011;11759;51.282;6.642;2023-08-20T05:51:36;566.03;;;181.82;;
23181;SDS011;11759;51.282;6.642;2023-08-20T05:54:02;581.47;;;204.68;;
23181;SDS011;11759;51.282;6.642;2023-08-20T05:56:29;560.35;;;190.27;;
23181;SDS011;11759;51.282;6.642;2023-08-20T05:58:56;584.05;;;216.27;;
23181;SDS011;11759;51.282;6.642;2023-08-20T06:01:23;571.17;;;200.13;;
23181;SDS011;11759;51.282;6.642;2023-08-20T06:03:50;572.35;;;206.70;;
23181;SDS011;11759;51.282;6.642;2023-08-20T06:06:16;570.25;;;197.38;;
23181;SDS011;11759;51.282;6.642;2023-08-20T06:08:43;566.42;;;198.20;;
23181;SDS011;11759;51.282;6.642;2023-08-20T06:11:28;567.88;;;212.88;;
23181;SDS011;11759;51.282;6.642;2023-08-20T06:13:55;582.13;;;217.55;;
23181;SDS011;11759;51.282;6.642;2023-08-20T06:16:21;569.25;;;209.25;;
23181;SDS011;11759;51.282;6.642;2023-08-20T06:18:48;576.35;;;215.68;;
23181;SDS011;11759;51.282;6.642;2023-08-20T06:21:16;579.05;;;225.38;;
23181;SDS011;11759;51.282;6.642;2023-08-20T06:23:43;573.70;;;228.70;;
23181;SDS011;11759;51.282;6.642;2023-08-20T06:26:10;590.63;;;241.02;;
23181;SDS011;11759;51.282;6.642;2023-08-20T06:28:36;575.70;;;221.15;;
23181;SDS011;11759;51.282;6.642;2023-08-20T06:31:03;586.85;;;228.07;;
23181;SDS011;11759;51.282;6.642;2023-08-20T06:33:29;572.22;;;225.68;;
23181;SDS011;11759;51.282;6.642;2023-08-20T06:35:56;588.58;;;239.25;;
23181;SDS011;11759;51.282;6.642;2023-08-20T06:38:23;572.97;;;228.75;;
23181;SDS011;11759;51.282;6.642;2023-08-20T06:40:50;576.35;;;231.52;;
23181;SDS011;11759;51.282;6.642;2023-08-20T06:43:16;580.42;;;238.32;;
23181;SDS011;11759;51.282;6.642;2023-08-20T06:45:43;585.38;;;244.48;;
23181;SDS011;11759;51.282;6.642;2023-08-20T06:48:09;617.00;;;281.10;;
23181;SDS011;11759;51.282;6.642;2023-08-20T06:50:36;582.00;;;249.40;;
23181;SDS011;11759;51.282;6.642;2023-08-20T06:53:04;604.28;;;276.15;;
23181;SDS011;11759;51.282;6.642;2023-08-20T06:55:31;586.45;;;247.30;;
23181;SDS011;11759;51.282;6.642;2023-08-20T06:57:58;602.08;;;264.80;;
23181;SDS011;11759;51.282;6.642;2023-08-20T07:00:24;597.53;;;250.43;;
23181;SDS011;11759;51.282;6.642;2023-08-20T07:02:52;582.13;;;244.52;;
23181;SDS011;11759;51.282;6.642;2023-08-20T07:05:18;643.90;;;307.50;;
23181;SDS011;11759;51.282;6.642;2023-08-20T07:07:45;585.53;;;264.13;;
23181;SDS011;11759;51.282;6.642;2023-08-20T07:10:12;641.50;;;336.48;;
23181;SDS011;11759;51.282;6.642;2023-08-20T07:12:38;602.78;;;331.05;;
23181;SDS011;11759;51.282;6.642;2023-08-20T07:15:05;653.88;;;404.48;;
23181;SDS011;11759;51.282;6.642;2023-08-20T07:17:33;613.25;;;395.52;;
23181;SDS011;11759;51.282;6.642;2023-08-20T07:20:00;642.15;;;430.05;;
23181;SDS011;11759;51.282;6.642;2023-08-20T07:22:26;620.03;;;406.90;;
23181;SDS011;11759;51.282;6.642;2023-08-20T07:24:53;619.50;;;390.20;;
23181;SDS011;11759;51.282;6.642;2023-08-20T07:27:20;617.13;;;394.27;;
23181;SDS011;11759;51.282;6.642;2023-08-20T07:29:47;604.67;;;365.50;;
23181;SDS011;11759;51.282;6.642;2023-08-20T07:32:14;618.70;;;394.27;;
23181;SDS011;11759;51.282;6.642;2023-08-20T07:34:41;650.10;;;412.88;;
23181;SDS011;11759;51.282;6.642;2023-08-20T07:37:07;614.13;;;382.70;;
23181;SDS011;11759;51.282;6.642;2023-08-20T07:39:34;607.63;;;362.40;;
23181;SDS011;11759;51.282;6.642;2023-08-20T07:42:01;619.03;;;367.73;;
23181;SDS011;11759;51.282;6.642;2023-08-20T07:44:28;608.67;;;367.42;;
23181;SDS011;11759;51.282;6.642;2023-08-20T07:46:54;612.42;;;350.73;;
23181;SDS011;11759;51.282;6.642;2023-08-20T07:49:21;614.33;;;347.23;;
23181;SDS011;11759;51.282;6.642;2023-08-20T07:51:48;601.33;;;333.70;;
23181;SDS011;11759;51.282;6.642;2023-08-20T07:54:15;623.25;;;364.38;;
23181;SDS011;11759;51.282;6.642;2023-08-20T07:56:42;604.33;;;356.15;;
23181;SDS011;11759;51.282;6.642;2023-08-20T07:59:08;622.88;;;377.90;;
23181;SDS011;11759;51.282;6.642;2023-08-20T08:01:35;605.00;;;352.52;;
23181;SDS011;11759;51.282;6.642;2023-08-20T08:04:02;614.00;;;378.48;;
23181;SDS011;11759;51.282;6.642;2023-08-20T08:06:28;608.10;;;365.63;;
23181;SDS011;11759;51.282;6.642;2023-08-20T08:08:55;614.55;;;386.02;;
23181;SDS011;11759;51.282;6.642;2023-08-20T08:11:22;648.45;;;401.67;;
23181;SDS011;11759;51.282;6.642;2023-08-20T08:13:48;608.47;;;368.08;;
23181;SDS011;11759;51.282;6.642;2023-08-20T08:16:15;629.70;;;395.35;;
23181;SDS011;11759;51.282;6.642;2023-08-20T08:18:41;613.00;;;371.20;;
23181;SDS011;11759;51.282;6.642;2023-08-20T08:21:08;677.42;;;444.90;;
23181;SDS011;11759;51.282;6.642;2023-08-20T08:23:35;612.40;;;387.02;;
23181;SDS011;11759;51.282;6.642;2023-08-20T08:26:02;630.55;;;402.55;;
23181;SDS011;11759;51.282;6.642;2023-08-20T08:28:28;614.85;;;392.05;;
23181;SDS011;11759;51.282;6.642;2023-08-20T08:30:55;674.28;;;449.08;;
23181;SDS011;11759;51.282;6.642;2023-08-20T08:33:22;618.70;;;406.52;;
23181;SDS011;11759;51.282;6.642;2023-08-20T08:35:50;620.00;;;412.05;;
23181;SDS011;11759;51.282;6.642;2023-08-20T08:38:16;648.92;;;441.75;;
23181;SDS011;11759;51.282;6.642;2023-08-20T08:40:43;622.85;;;446.60;;
23181;SDS011;11759;51.282;6.642;2023-08-20T08:43:10;652.75;;;504.08;;
23181;SDS011;11759;51.282;6.642;2023-08-20T08:45:44;641.28;;;529.65;;
23181;SDS011;11759;51.282;6.642;2023-08-20T08:48:13;686.58;;;590.63;;
23181;SDS011;11759;51.282;6.642;2023-08-20T08:50:40;675.22;;;602.35;;
23181;SDS011;11759;51.282;6.642;2023-08-20T08:53:07;733.25;;;657.25;;
23181;SDS011;11759;51.282;6.642;2023-08-20T08:55:34;751.38;;;676.60;;
23181;SDS011;11759;51.282;6.642;2023-08-20T08:58:01;783.17;;;706.22;;
23181;SDS011;11759;51.282;6.642;2023-08-20T09:00:28;784.72;;;708.72;;
23181;SDS011;11759;51.282;6.642;2023-08-20T09:02:57;819.38;;;741.85;;
23181;SDS011;11759;51.282;6.642;2023-08-20T09:05:24;825.65;;;749.00;;
23181;SDS011;11759;51.282;6.642;2023-08-20T09:07:54;839.25;;;761.85;;
23181;SDS011;11759;51.282;6.642;2023-08-20T09:10:26;790.35;;;713.92;;
23181;SDS011;11759;51.282;6.642;2023-08-20T09:12:54;788.30;;;712.35;;
23181;SDS011;11759;51.282;6.642;2023-08-20T09:15:21;752.22;;;677.47;;
23181;SDS011;11759;51.282;6.642;2023-08-20T09:17:48;805.78;;;721.15;;
23181;SDS011;11759;51.282;6.642;2023-08-20T09:20:15;734.03;;;657.13;;
23181;SDS011;11759;51.282;6.642;2023-08-20T09:22:45;724.17;;;649.17;;
23181;SDS011;11759;51.282;6.642;2023-08-20T09:25:15;761.75;;;683.70;;
23181;SDS011;11759;51.282;6.642;2023-08-20T09:27:43;777.47;;;698.42;;
23181;SDS011;11759;51.282;6.642;2023-08-20T09:30:09;806.03;;;726.58;;
23181;SDS011;11759;51.282;6.642;2023-08-20T09:32:37;825.00;;;745.13;;
23181;SDS011;11759;51.282;6.642;2023-08-20T09:35:04;825.63;;;748.10;;
23181;SDS011;11759;51.282;6.642;2023-08-20T09:37:31;809.80;;;734.53;;
23181;SDS011;11759;51.282;6.642;2023-08-20T09:39:59;833.58;;;754.85;;
23181;SDS011;11759;51.282;6.642;2023-08-20T09:42:26;810.33;;;734.58;;
23181;SDS011;11759;51.282;6.642;2023-08-20T09:44:54;814.03;;;736.95;;
23181;SDS011;11759;51.282;6.642;2023-08-20T09:47:21;804.38;;;728.50;;
23181;SDS011;11759;51.282;6.642;2023-08-20T09:49:51;850.55;;;768.05;;
23181;SDS011;11759;51.282;6.642;2023-08-20T09:52:31;852.88;;;775.38;;
23181;SDS011;11759;51.282;6.642;2023-08-20T09:55:11;902.35;;;820.90;;
23181;SDS011;11759;51.282;6.642;2023-08-20T09:57:40;907.08;;;825.25;;
23181;SDS011;11759;51.282;6.642;2023-08-20T10:00:12;888.75;;;806.97;;
23181;SDS011;11759;51.282;6.642;2023-08-20T10:02:43;877.45;;;797.58;;
23181;SDS011;11759;51.282;6.642;2023-08-20T10:05:10;868.55;;;786.22;;
23181;SDS011;11759;51.282;6.642;2023-08-20T10:07:38;802.60;;;726.67;;
23181;SDS011;11759;51.282;6.642;2023-08-20T10:10:05;848.42;;;765.33;;
23181;SDS011;11759;51.282;6.642;2023-08-20T10:12:37;775.17;;;700.08;;
23181;SDS011;11759;51.282;6.642;2023-08-20T10:15:08;806.47;;;725.92;;
23181;SDS011;11759;51.282;6.642;2023-08-20T10:17:37;797.45;;;721.03;;
23181;SDS011;11759;51.282;6.642;2023-08-20T10:20:05;864.05;;;781.60;;
23181;SDS011;11759;51.282;6.642;2023-08-20T10:25:07;798.97;;;719.63;;
23181;SDS011;11759;51.282;6.642;2023-08-20T10:30:18;750.42;;;672.33;;
23181;SDS011;11759;51.282;6.642;2023-08-20T10:32:48;671.70;;;599.38;;
23181;SDS011;11759;51.282;6.642;2023-08-20T10:35:26;700.30;;;616.25;;
23181;SDS011;11759;51.282;6.642;2023-08-20T10:38:01;646.08;;;556.42;;
23181;SDS011;11759;51.282;6.642;2023-08-20T10:40:58;630.47;;;493.40;;
23181;SDS011;11759;51.282;6.642;2023-08-20T10:43:28;629.58;;;478.77;;
23181;SDS011;11759;51.282;6.642;2023-08-20T10:48:49;619.58;;;458.50;;
23181;SDS011;11759;51.282;6.642;2023-08-20T10:51:26;656.42;;;484.98;;
23181;SDS011;11759;51.282;6.642;2023-08-20T10:56:47;625.55;;;467.10;;
23181;SDS011;11759;51.282;6.642;2023-08-20T10:59:15;648.88;;;530.97;;
23181;SDS011;11759;51.282;6.642;2023-08-20T11:01:43;648.22;;;572.20;;
23181;SDS011;11759;51.282;6.642;2023-08-20T11:04:11;693.03;;;618.72;;
23181;SDS011;11759;51.282;6.642;2023-08-20T11:06:38;718.03;;;645.38;;
23181;SDS011;11759;51.282;6.642;2023-08-20T11:09:05;731.10;;;656.13;;
23181;SDS011;11759;51.282;6.642;2023-08-20T11:11:32;720.88;;;647.92;;
23181;SDS011;11759;51.282;6.642;2023-08-20T11:14:04;770.78;;;695.45;;
23181;SDS011;11759;51.282;6.642;2023-08-20T11:16:32;790.22;;;714.90;;
23181;SDS011;11759;51.282;6.642;2023-08-20T11:19:00;831.63;;;753.97;;
23181;SDS011;11759;51.282;6.642;2023-08-20T11:21:27;842.47;;;765.75;;
23181;SDS011;11759;51.282;6.642;2023-08-20T11:23:55;857.72;;;780.25;;
23181;SDS011;11759;51.282;6.642;2023-08-20T11:26:21;871.53;;;793.40;;
23181;SDS011;11759;51.282;6.642;2023-08-20T11:28:49;838.70;;;762.08;;
23181;SDS011;11759;51.282;6.642;2023-08-20T11:31:15;829.10;;;749.47;;
23181;SDS011;11759;51.282;6.642;2023-08-20T11:33:42;780.03;;;705.58;;
23181;SDS011;11759;51.282;6.642;2023-08-20T11:36:09;875.20;;;788.03;;
23181;SDS011;11759;51.282;6.642;2023-08-20T11:38:35;802.13;;;726.85;;
23181;SDS011;11759;51.282;6.642;2023-08-20T11:41:02;861.00;;;782.45;;
23181;SDS011;11759;51.282;6.642;2023-08-20T11:43:30;869.97;;;792.83;;
23181;SDS011;11759;51.282;6.642;2023-08-20T11:45:56;927.90;;;847.40;;
23181;SDS011;11759;51.282;6.642;2023-08-20T11:48:23;962.55;;;880.40;;
23181;SDS011;11759;51.282;6.642;2023-08-20T11:50:50;951.08;;;869.53;;
23181;SDS011;11759;51.282;6.642;2023-08-20T11:53:23;975.47;;;892.40;;
23181;SDS011;11759;51.282;6.642;2023-08-20T11:55:49;969.38;;;887.17;;
23181;SDS011;11759;51.282;6.642;2023-08-20T11:58:18;995.70;;;909.70;;
23181;SDS011;11759;51.282;6.642;2023-08-20T12:00:47;944.65;;;863.70;;
23181;SDS011;11759;51.282;6.642;2023-08-20T12:03:15;958.42;;;875.63;;
23181;SDS011;11759;51.282;6.642;2023-08-20T12:05:42;914.10;;;834.83;;
23181;SDS011;11759;51.282;6.642;2023-08-20T12:08:08;973.13;;;883.20;;
23181;SDS011;11759;51.282;6.642;2023-08-20T12:10:42;843.63;;;765.85;;
23181;SDS011;11759;51.282;6.642;2023-08-20T12:13:09;833.05;;;755.95;;
23181;SDS011;11759;51.282;6.642;2023-08-20T12:15:36;840.20;;;763.72;;
23181;SDS011;11759;51.282;6.642;2023-08-20T12:18:03;857.60;;;776.83;;
23181;SDS011;11759;51.282;6.642;2023-08-20T12:20:32;810.30;;;734.78;;
23181;SDS011;11759;51.282;6.642;2023-08-20T12:23:00;836.95;;;758.85;;
23181;SDS011;11759;51.282;6.642;2023-08-20T12:25:31;820.15;;;744.15;;
23181;SDS011;11759;51.282;6.642;2023-08-20T12:28:01;850.22;;;772.05;;
23181;SDS011;11759;51.282;6.642;2023-08-20T12:30:28;842.55;;;766.08;;
23181;SDS011;11759;51.282;6.642;2023-08-20T12:32:54;883.78;;;802.55;;
23181;SDS011;11759;51.282;6.642;2023-08-20T12:35:21;904.75;;;825.25;;
23181;SDS011;11759;51.282;6.642;2023-08-20T12:37:48;909.33;;;829.55;;
23181;SDS011;11759;51.282;6.642;2023-08-20T12:40:15;937.72;;;853.78;;
23181;SDS011;11759;51.282;6.642;2023-08-20T12:42:42;882.58;;;804.00;;
23181;SDS011;11759;51.282;6.642;2023-08-20T12:45:10;888.55;;;804.97;;
23181;SDS011;11759;51.282;6.642;2023-08-20T12:47:39;791.30;;;716.05;;
23181;SDS011;11759;51.282;6.642;2023-08-20T12:50:05;788.90;;;709.72;;
23181;SDS011;11759;51.282;6.642;2023-08-20T12:52:32;745.97;;;669.85;;
23181;SDS011;11759;51.282;6.642;2023-08-20T12:54:59;764.70;;;689.13;;
23181;SDS011;11759;51.282;6.642;2023-08-20T12:57:26;775.80;;;700.00;;
23181;SDS011;11759;51.282;6.642;2023-08-20T12:59:52;809.65;;;727.97;;
23181;SDS011;11759;51.282;6.642;2023-08-20T13:02:19;805.25;;;728.50;;
23181;SDS011;11759;51.282;6.642;2023-08-20T13:04:47;840.40;;;760.47;;
23181;SDS011;11759;51.282;6.642;2023-08-20T13:07:14;820.03;;;742.95;;
23181;SDS011;11759;51.282;6.642;2023-08-20T13:09:41;816.63;;;737.58;;
23181;SDS011;11759;51.282;6.642;2023-08-20T13:12:09;811.13;;;733.92;;
23181;SDS011;11759;51.282;6.642;2023-08-20T13:14:39;771.22;;;695.70;;
23181;SDS011;11759;51.282;6.642;2023-08-20T13:17:07;764.67;;;687.63;;
23181;SDS011;11759;51.282;6.642;2023-08-20T13:19:34;741.38;;;666.80;;
23181;SDS011;11759;51.282;6.642;2023-08-20T13:22:01;791.33;;;713.60;;
23181;SDS011;11759;51.282;6.642;2023-08-20T13:24:28;835.35;;;757.42;;
23181;SDS011;11759;51.282;6.642;2023-08-20T13:26:55;878.38;;;798.00;;
23181;SDS011;11759;51.282;6.642;2023-08-20T13:29:21;911.22;;;831.05;;
23181;SDS011;11759;51.282;6.642;2023-08-20T13:31:48;958.53;;;873.88;;
23181;SDS011;11759;51.282;6.642;2023-08-20T13:34:15;938.05;;;856.85;;
23181;SDS011;11759;51.282;6.642;2023-08-20T13:36:41;947.45;;;865.13;;
23181;SDS011;11759;51.282;6.642;2023-08-20T13:39:08;955.78;;;873.55;;
23181;SDS011;11759;51.282;6.642;2023-08-20T13:41:35;968.17;;;885.38;;
23181;SDS011;11759;51.282;6.642;2023-08-20T13:44:01;994.38;;;909.97;;
23181;SDS011;11759;51.282;6.642;2023-08-20T13:46:28;968.45;;;885.67;;
23181;SDS011;11759;51.282;6.642;2023-08-20T13:48:55;986.40;;;901.58;;
23181;SDS011;11759;51.282;6.642;2023-08-20T13:51:22;962.65;;;880.17;;
23181;SDS011;11759;51.282;6.642;2023-08-20T13:53:49;966.75;;;883.58;;
23181;SDS011;11759;51.282;6.642;2023-08-20T13:56:15;986.40;;;902.97;;
23181;SDS011;11759;51.282;6.642;2023-08-20T13:58:42;1000.40;;;915.70;;
23181;SDS011;11759;51.282;6.642;2023-08-20T14:01:09;1000.25;;;916.17;;
23181;SDS011;11759;51.282;6.642;2023-08-20T14:03:36;1019.55;;;934.28;;
23181;SDS011;11759;51.282;6.642;2023-08-20T14:06:02;1039.13;;;952.30;;
23181;SDS011;11759;51.282;6.642;2023-08-20T14:08:29;15.50;;;5.28;;
23181;SDS011;11759;51.282;6.642;2023-08-20T14:10:56;5.47;;;3.10;;
23181;SDS011;11759;51.282;6.642;2023-08-20T14:13:23;8.45;;;3.08;;
23181;SDS011;11759;51.282;6.642;2023-08-20T14:15:49;15.13;;;7.18;;
23181;SDS011;11759;51.282;6.642;2023-08-20T14:18:16;25.63;;;6.35;;